DSV Whale — 3FNO5 — position and weather

sailwx.info

Track history (hours):
 
Tides and Currents Weather Stations Pressure Air Temp Water Temp Dewpoint Dewpoint Depression Visibility Wind Speed Wind Dir Waves Ship Positions

DSV Whale

Last reported at 2018-Feb-17 01:12 UTC. Time now 2018-Feb-25 06:10 UTC.
Position N 46°11' W 125°40'.
Warning: this ship's position is 8 days out of date.

; draft 4.7 m.

Type: Diving. MMSI: 356945000.

Date/timePositionNaut miles runAvg speedWind from/ knotsBaromVisibWave heightAir tempDewpointWater temp
2018-Feb-17 01:12N 46°11' W 125°40'211.7
2018-Feb-17 01:00N 46°12' W 125°36'611.5
2018-Feb-17 00:30N 46°12' W 125°28'611.8
2018-Feb-17 00:00N 46°12' W 125°20'611.7
2018-Feb-16 23:29N 46°12' W 125°11'611.9
2018-Feb-16 23:00N 46°12' W 125°03'612.0
2018-Feb-16 22:30N 46°12' W 124°54'611.7
2018-Feb-16 22:00N 46°12' W 124°45'611.5
2018-Feb-16 21:30N 46°12' W 124°37'911.3
2018-Feb-16 20:43N 46°11' W 124°24'311.1
2018-Feb-16 20:25N 46°11' W 124°20'511.4
2018-Feb-16 20:00N 46°11' W 124°13'5 8.6
2018-Feb-16 19:24N 46°14' W 124°07'3 8.1
2018-Feb-16 19:00N 46°16' W 124°03'4 8.8
2018-Feb-16 18:30N 46°13' W 123°58'4 8.4
2018-Feb-16 17:59N 46°12' W 123°52'4 8.4
2018-Feb-16 17:30N 46°13' W 123°46'5 9.2
2018-Feb-16 17:00N 46°15' W 123°40'810.2
2018-Feb-16 16:11N 46°16' W 123°28'310.5
2018-Feb-16 15:53N 46°14' W 123°26'410.1
2018-Feb-16 15:30N 46°10' W 123°25'510.2
2018-Feb-16 15:00N 46°09' W 123°17'611.2
2018-Feb-16 14:30N 46°11' W 123°10'510.4
2018-Feb-16 14:00N 46°09' W 123°03'510.0
2018-Feb-16 13:30N 46°06' W 122°58'1 1.8
2018-Feb-16 12:59N 46°06' W 122°56'0 0.0
2018-Feb-16 11:44N 46°06' W 122°56'0 0.0
2018-Feb-16 11:29N 46°06' W 122°56'0 0.0
2018-Feb-16 10:59N 46°06' W 122°56'0 0.0
2018-Feb-16 10:29N 46°06' W 122°56'0 0.0
2018-Feb-16 09:56N 46°06' W 122°56'0 0.0
2018-Feb-16 08:59N 46°06' W 122°56'0 0.0
2018-Feb-16 08:26N 46°06' W 122°56'0 0.0
2018-Feb-16 07:59N 46°06' W 122°56'0 0.0
2018-Feb-16 07:23N 46°06' W 122°56'0 0.0
2018-Feb-16 06:59N 46°06' W 122°56'0 0.0
2018-Feb-16 06:29N 46°06' W 122°56'0 0.0
2018-Feb-16 05:56N 46°06' W 122°56'0 0.0
2018-Feb-16 05:29N 46°06' W 122°56'0 0.0
2018-Feb-16 04:53N 46°06' W 122°56'0 0.0
2018-Feb-16 04:29N 46°06' W 122°56'0 0.0
2018-Feb-16 03:59N 46°06' W 122°56'0 0.0
2018-Feb-16 03:26N 46°06' W 122°56'0 0.0
2018-Feb-16 02:59N 46°06' W 122°56'0 0.0
2018-Feb-16 02:29N 46°06' W 122°56'0 0.0
2018-Feb-16 01:59N 46°06' W 122°56'0 0.0
2018-Feb-16 01:29N 46°06' W 122°56'0 0.0
2018-Feb-16 00:59N 46°06' W 122°56'0 0.0
2018-Feb-16 00:20N 46°06' W 122°56'0 0.0
2018-Feb-15 23:59N 46°06' W 122°56'0 0.0
2018-Feb-15 23:29N 46°06' W 122°56'0 0.0
2018-Feb-15 22:59N 46°06' W 122°56'0 0.0
2018-Feb-15 22:29N 46°06' W 122°56'0 0.0
2018-Feb-15 21:59N 46°06' W 122°56'0 0.0
2018-Feb-15 21:29N 46°06' W 122°56'0 0.0
2018-Feb-15 20:56N 46°06' W 122°56'0 0.0
2018-Feb-15 20:29N 46°06' W 122°56'0 0.0
2018-Feb-15 19:59N 46°06' W 122°56'0 0.0
2018-Feb-15 19:29N 46°06' W 122°56'0 0.0
2018-Feb-15 18:53N 46°06' W 122°56'0 0.0
2018-Feb-15 18:08N 46°06' W 122°56'0 0.0
2018-Feb-15 17:59N 46°06' W 122°56'0 0.0
2018-Feb-15 17:29N 46°06' W 122°56'0 0.0
2018-Feb-15 16:59N 46°06' W 122°56'0 0.0
2018-Feb-15 16:29N 46°06' W 122°56'0 0.0
2018-Feb-15 15:29N 46°06' W 122°56'0 0.0
2018-Feb-15 14:56N 46°06' W 122°56'0 0.0
2018-Feb-15 14:29N 46°06' W 122°56'0 0.0
2018-Feb-15 13:59N 46°06' W 122°56'0 0.0
2018-Feb-15 13:29N 46°06' W 122°56'0 0.0
2018-Feb-15 12:59N 46°06' W 122°56'0 0.0
2018-Feb-15 12:29N 46°06' W 122°56'0 0.0
2018-Feb-15 11:59N 46°06' W 122°56'0 0.0
2018-Feb-15 11:11N 46°06' W 122°56'0 0.0
2018-Feb-15 10:53N 46°06' W 122°56'0 0.0
2018-Feb-15 10:11N 46°06' W 122°56'0 0.0
2018-Feb-15 09:53N 46°06' W 122°56'0 0.0
2018-Feb-15 09:29N 46°06' W 122°56'0 0.0
2018-Feb-15 08:59N 46°06' W 122°56'0 0.0
2018-Feb-15 08:26N 46°06' W 122°56'0 0.0
2018-Feb-15 07:59N 46°06' W 122°56'0 0.0
2018-Feb-15 07:29N 46°06' W 122°56'0 0.0
2018-Feb-15 06:59N 46°06' W 122°56'0 0.0
2018-Feb-15 06:23N 46°06' W 122°56'0 0.0
2018-Feb-15 05:56N 46°06' W 122°56'0 0.0
2018-Feb-15 05:29N 46°06' W 122°56'0 0.0
2018-Feb-15 04:59N 46°06' W 122°56'0 0.0
2018-Feb-15 04:29N 46°06' W 122°56'0 0.0
2018-Feb-15 03:59N 46°06' W 122°56'0 0.0
2018-Feb-15 03:29N 46°06' W 122°56'0 0.0
2018-Feb-15 02:59N 46°06' W 122°56'0 0.0
2018-Feb-15 02:26N 46°06' W 122°56'0 0.0
2018-Feb-15 01:44N 46°06' W 122°56'0 0.0
2018-Feb-15 00:53N 46°06' W 122°56'0 0.0
2018-Feb-15 00:29N 46°06' W 122°56'0 0.0
2018-Feb-14 23:59N 46°06' W 122°56'0 0.0
2018-Feb-14 23:29N 46°06' W 122°56'0 0.0
2018-Feb-14 22:59N 46°06' W 122°56'0 0.0
2018-Feb-14 22:29N 46°06' W 122°56'0 0.0
2018-Feb-14 21:59N 46°06' W 122°56'0 0.0
2018-Feb-14 21:29N 46°06' W 122°56'0 0.0
2018-Feb-14 20:59N 46°06' W 122°56'0 0.0
2018-Feb-14 20:31N 46°06' W 122°56'0 0.7
2018-Feb-14 20:00N 46°06' W 122°56'0 0.2
2018-Feb-14 19:30N 46°06' W 122°56'0 0.0
2018-Feb-14 18:54N 46°06' W 122°56'0 0.0
2018-Feb-14 18:30N 46°06' W 122°56'0 0.0
2018-Feb-14 18:00N 46°06' W 122°56'0 0.0
2018-Feb-14 17:30N 46°06' W 122°56'0 0.0
2018-Feb-14 17:00N 46°06' W 122°56'0 0.0
2018-Feb-14 16:30N 46°06' W 122°56'0 0.0
2018-Feb-14 15:45N 46°06' W 122°56'0 0.0
2018-Feb-14 15:24N 46°06' W 122°56'0 0.0
2018-Feb-14 15:00N 46°06' W 122°56'0 0.0
2018-Feb-14 14:30N 46°06' W 122°56'0 0.0
2018-Feb-14 14:00N 46°06' W 122°56'0 0.0
2018-Feb-14 13:30N 46°06' W 122°56'0 0.0
2018-Feb-14 13:00N 46°06' W 122°56'0 0.0
2018-Feb-14 12:27N 46°06' W 122°56'0 0.0
2018-Feb-14 12:00N 46°06' W 122°56'0 0.0
2018-Feb-14 11:21N 46°06' W 122°56'0 0.0
2018-Feb-14 11:00N 46°06' W 122°56'0 0.0
2018-Feb-14 10:30N 46°06' W 122°56'0 0.0
2018-Feb-14 10:00N 46°06' W 122°56'0 0.0
2018-Feb-14 09:27N 46°06' W 122°56'0 0.0
2018-Feb-14 09:00N 46°06' W 122°56'0 0.0
2018-Feb-14 08:09N 46°06' W 122°56'0 0.0
2018-Feb-14 07:57N 46°06' W 122°56'0 0.0
2018-Feb-14 07:30N 46°06' W 122°56'0 0.0
2018-Feb-14 06:51N 46°06' W 122°56'0 0.0
2018-Feb-14 06:30N 46°06' W 122°56'0 0.0
2018-Feb-14 05:57N 46°06' W 122°56'0 0.0
2018-Feb-14 05:30N 46°06' W 122°56'0 0.0
2018-Feb-14 04:54N 46°06' W 122°56'0 0.0
2018-Feb-14 04:30N 46°06' W 122°56'0 0.0
2018-Feb-14 04:00N 46°06' W 122°56'0 0.0
2018-Feb-14 03:30N 46°06' W 122°56'0 0.0
2018-Feb-14 03:00N 46°06' W 122°56'0 0.0
2018-Feb-14 02:30N 46°06' W 122°56'0 0.0
2018-Feb-14 01:51N 46°06' W 122°56'0 0.0
2018-Feb-14 01:27N 46°06' W 122°56'0 0.0
2018-Feb-14 01:00N 46°06' W 122°56'0 0.0
2018-Feb-14 00:30N 46°06' W 122°56'0 0.0
2018-Feb-14 00:00N 46°06' W 122°56'0 0.0
2018-Feb-13 23:18N 46°06' W 122°56'0 0.0
2018-Feb-13 23:00N 46°06' W 122°56'0 0.0
2018-Feb-13 22:30N 46°06' W 122°56'0 0.0
2018-Feb-13 20:27N 46°06' W 122°56'0 0.0
2018-Feb-13 19:57N 46°06' W 122°56'0 0.0
2018-Feb-13 19:30N 46°06' W 122°56'0 0.0
2018-Feb-13 18:57N 46°06' W 122°56'0 0.0
2018-Feb-13 17:45N 46°06' W 122°56'0 0.0
2018-Feb-13 17:24N 46°06' W 122°56'0 0.0
2018-Feb-13 17:00N 46°06' W 122°56'0 0.0
2018-Feb-13 16:30N 46°06' W 122°56'0 0.0
2018-Feb-13 15:39N 46°06' W 122°56'0 0.0
2018-Feb-13 15:21N 46°06' W 122°56'0 0.0
2018-Feb-13 15:00N 46°06' W 122°56'0 0.0
2018-Feb-13 14:30N 46°06' W 122°56'0 0.0
2018-Feb-13 14:00N 46°06' W 122°56'0 0.0
2018-Feb-13 13:30N 46°06' W 122°56'0 0.0
2018-Feb-13 12:45N 46°06' W 122°56'0 0.0
2018-Feb-13 12:27N 46°06' W 122°56'0 0.0
2018-Feb-13 12:00N 46°06' W 122°56'0 0.0
2018-Feb-13 11:30N 46°06' W 122°56'0 0.0
2018-Feb-13 10:57N 46°06' W 122°56'0 0.0
2018-Feb-13 10:24N 46°06' W 122°56'0 0.0
2018-Feb-13 10:00N 46°06' W 122°56'0 0.0
2018-Feb-13 09:24N 46°06' W 122°56'0 0.0
2018-Feb-13 09:00N 46°06' W 122°56'0 0.0
2018-Feb-13 08:30N 46°06' W 122°56'0 0.0
2018-Feb-13 07:57N 46°06' W 122°56'0 0.0
2018-Feb-13 07:21N 46°06' W 122°56'0 0.0
2018-Feb-13 07:00N 46°06' W 122°56'0 0.0
2018-Feb-13 06:30N 46°06' W 122°56'0 0.0
2018-Feb-13 05:48N 46°06' W 122°56'0 0.0
2018-Feb-13 05:24N 46°06' W 122°56'0 0.0
2018-Feb-13 05:00N 46°06' W 122°56'0 0.0
2018-Feb-13 04:30N 46°06' W 122°56'0 0.0
2018-Feb-13 03:57N 46°06' W 122°56'0 0.0
2018-Feb-13 03:24N 46°06' W 122°56'0 0.0
2018-Feb-13 03:00N 46°06' W 122°56'0 0.0
2018-Feb-13 02:24N 46°06' W 122°56'0 0.0
2018-Feb-13 02:00N 46°06' W 122°56'0 0.0
2018-Feb-13 01:30N 46°06' W 122°56'0 0.0
2018-Feb-13 01:00N 46°06' W 122°56'0 0.0
2018-Feb-13 00:12N 46°06' W 122°56'0 0.0
2018-Feb-12 23:57N 46°06' W 122°56'0 0.0
2018-Feb-12 23:24N 46°06' W 122°56'0 0.0
2018-Feb-12 22:57N 46°06' W 122°56'0 0.0
2018-Feb-12 22:30N 46°06' W 122°56'0 0.0
2018-Feb-12 21:57N 46°06' W 122°56'0 0.0
2018-Feb-12 21:30N 46°06' W 122°56'0 0.0
2018-Feb-12 20:54N 46°06' W 122°56'0 0.0
2018-Feb-12 20:18N 46°06' W 122°56'0 0.0
2018-Feb-12 20:00N 46°06' W 122°56'0 0.0
2018-Feb-12 19:30N 46°06' W 122°56'0 0.0
2018-Feb-12 19:00N 46°06' W 122°56'0 0.0
2018-Feb-12 18:27N 46°06' W 122°56'0 0.0
2018-Feb-12 17:57N 46°06' W 122°56'0 0.0
2018-Feb-12 17:30N 46°06' W 122°56'0 0.0
2018-Feb-12 16:48N 46°06' W 122°56'0 0.0
2018-Feb-12 16:21N 46°06' W 122°56'0 0.0
2018-Feb-12 16:00N 46°06' W 122°56'0 0.0
2018-Feb-12 15:15N 46°06' W 122°56'0 0.0
2018-Feb-12 15:00N 46°06' W 122°56'0 0.0
2018-Feb-12 14:30N 46°06' W 122°56'0 0.0
2018-Feb-12 14:00N 46°06' W 122°56'0 0.0
2018-Feb-12 13:24N 46°06' W 122°56'0 0.0
2018-Feb-12 12:54N 46°06' W 122°56'0 0.0
2018-Feb-12 12:30N 46°06' W 122°56'0 0.0
2018-Feb-12 12:00N 46°06' W 122°56'0 0.0
2018-Feb-12 11:30N 46°06' W 122°56'0 0.0
2018-Feb-12 11:00N 46°06' W 122°56'0 0.0
2018-Feb-12 10:30N 46°06' W 122°56'0 0.0
2018-Feb-12 10:00N 46°06' W 122°56'0 0.0
2018-Feb-12 09:27N 46°06' W 122°56'0 0.0
2018-Feb-12 08:54N 46°06' W 122°56'0 0.0
2018-Feb-12 08:30N 46°06' W 122°56'0 0.0
2018-Feb-12 08:00N 46°06' W 122°56'0 0.0
2018-Feb-12 07:30N 46°06' W 122°56'0 0.0
2018-Feb-12 07:00N 46°06' W 122°56'0 0.0
2018-Feb-12 06:30N 46°06' W 122°56'0 0.0
2018-Feb-12 05:30N 46°06' W 122°56'0 0.0
2018-Feb-12 05:00N 46°06' W 122°56'0 0.0
2018-Feb-12 04:30N 46°06' W 122°56'0 0.0
2018-Feb-12 03:57N 46°06' W 122°56'0 0.0
2018-Feb-12 03:30N 46°06' W 122°56'0 0.0
2018-Feb-12 02:54N 46°06' W 122°56'0 0.0
2018-Feb-12 02:30N 46°06' W 122°56'0 0.0
2018-Feb-12 02:00N 46°06' W 122°56'0 0.0
2018-Feb-12 01:30N 46°06' W 122°56'0 0.0
2018-Feb-12 00:54N 46°06' W 122°56'0 0.0
2018-Feb-12 00:30N 46°06' W 122°56'0 0.0
2018-Feb-12 00:00N 46°06' W 122°56'0 0.0
2018-Feb-11 23:27N 46°06' W 122°56'0 0.0
2018-Feb-11 22:48N 46°06' W 122°56'0 0.0
2018-Feb-11 22:27N 46°06' W 122°56'0 0.0
2018-Feb-11 22:00N 46°06' W 122°56'0 0.0
2018-Feb-11 21:24N 46°06' W 122°56'0 0.0
2018-Feb-11 21:00N 46°06' W 122°56'0 0.0
2018-Feb-11 19:54N 46°06' W 122°56'0 0.0
2018-Feb-11 19:15N 46°06' W 122°56'0 0.0
2018-Feb-11 19:00N 46°06' W 122°56'0 0.0
2018-Feb-11 18:30N 46°06' W 122°56'0 0.0
2018-Feb-11 17:57N 46°06' W 122°56'0 0.0
2018-Feb-11 17:24N 46°06' W 122°56'0 0.0
2018-Feb-11 16:57N 46°06' W 122°56'0 0.0
2018-Feb-11 16:30N 46°06' W 122°56'0 0.0
2018-Feb-11 15:54N 46°06' W 122°56'0 0.0
2018-Feb-11 15:27N 46°06' W 122°56'0 0.0
2018-Feb-11 14:51N 46°06' W 122°56'0 0.0
2018-Feb-11 14:30N 46°06' W 122°56'0 0.0
2018-Feb-11 13:57N 46°06' W 122°56'0 0.0
2018-Feb-11 13:27N 46°06' W 122°56'0 0.0
2018-Feb-11 13:00N 46°06' W 122°56'0 0.0
2018-Feb-11 12:30N 46°06' W 122°56'0 0.0
2018-Feb-11 11:48N 46°06' W 122°56'0 0.0
2018-Feb-11 11:27N 46°06' W 122°56'0 0.0
2018-Feb-11 11:00N 46°06' W 122°56'0 0.0
2018-Feb-11 10:27N 46°06' W 122°56'0 0.0
2018-Feb-11 10:00N 46°06' W 122°56'0 0.0
2018-Feb-11 09:27N 46°06' W 122°56'0 0.0
2018-Feb-11 09:00N 46°06' W 122°56'0 0.0
2018-Feb-11 08:24N 46°06' W 122°56'0 0.0
2018-Feb-11 08:00N 46°06' W 122°56'0 0.0
2018-Feb-11 06:57N 46°06' W 122°56'0 0.0
2018-Feb-11 06:24N 46°06' W 122°56'0 0.0
2018-Feb-11 05:48N 46°06' W 122°56'0 0.0
2018-Feb-11 05:24N 46°06' W 122°56'0 0.0
2018-Feb-11 05:00N 46°06' W 122°56'0 0.0
2018-Feb-11 04:15N 46°06' W 122°56'0 0.0
2018-Feb-11 03:57N 46°06' W 122°56'0 0.0
2018-Feb-11 03:30N 46°06' W 122°56'0 0.0
2018-Feb-11 02:57N 46°06' W 122°56'0 0.0
2018-Feb-11 02:15N 46°06' W 122°56'0 0.0
2018-Feb-11 01:57N 46°06' W 122°56'0 0.0
2018-Feb-11 01:27N 46°06' W 122°56'0 0.0
2018-Feb-11 00:54N 46°06' W 122°56'0 0.0
2018-Feb-11 00:24N 46°06' W 122°56'0 0.0
2018-Feb-10 23:57N 46°06' W 122°56'0 0.0
2018-Feb-10 23:24N 46°06' W 122°56'0 0.0
2018-Feb-10 22:57N 46°06' W 122°56'0 0.0
2018-Feb-10 22:27N 46°06' W 122°56'0 0.0
2018-Feb-10 21:42N 46°06' W 122°56'0 0.0
2018-Feb-10 21:24N 46°06' W 122°56'0 0.0
2018-Feb-10 20:54N 46°06' W 122°56'0 0.0
2018-Feb-10 20:30N 46°06' W 122°56'0 0.0
2018-Feb-10 19:57N 46°06' W 122°56'0 0.0
2018-Feb-10 19:30N 46°06' W 122°56'0 0.0
2018-Feb-10 19:00N 46°06' W 122°56'0 0.0
2018-Feb-10 18:30N 46°06' W 122°56'0 0.0
2018-Feb-10 18:00N 46°06' W 122°56'0 0.0
2018-Feb-10 17:30N 46°06' W 122°56'0 0.0
2018-Feb-10 17:00N 46°06' W 122°56'0 0.0
2018-Feb-10 16:30N 46°06' W 122°56'0 0.0
2018-Feb-10 15:57N 46°06' W 122°56'0 0.0
2018-Feb-10 15:30N 46°06' W 122°56'0 0.0
2018-Feb-10 15:00N 46°06' W 122°56'0 0.0
2018-Feb-10 14:30N 46°06' W 122°56'0 0.0
2018-Feb-10 14:00N 46°06' W 122°56'0 0.0
2018-Feb-10 13:30N 46°06' W 122°56'0 0.0
2018-Feb-10 12:45N 46°06' W 122°56'0 0.0
2018-Feb-10 12:30N 46°06' W 122°56'0 0.0
2018-Feb-10 12:00N 46°06' W 122°56'0 0.0
2018-Feb-10 11:28N 46°06' W 122°56'0 0.0
2018-Feb-10 11:00N 46°06' W 122°56'0 0.0
2018-Feb-10 10:30N 46°06' W 122°56'0 0.0
2018-Feb-10 10:00N 46°06' W 122°56'0 0.0
2018-Feb-10 09:30N 46°06' W 122°56'0 0.0
2018-Feb-10 09:00N 46°06' W 122°56'0 0.0
2018-Feb-10 08:30N 46°06' W 122°56'0 0.0
2018-Feb-10 07:57N 46°06' W 122°56'0 0.0
2018-Feb-10 07:27N 46°06' W 122°56'0 0.0
2018-Feb-10 06:45N 46°06' W 122°56'0 0.0
2018-Feb-10 06:09N 46°06' W 122°56'0 0.0
2018-Feb-10 06:00N 46°06' W 122°56'0 0.0
2018-Feb-10 05:30N 46°06' W 122°56'0 0.0
2018-Feb-10 05:00N 46°06' W 122°56'0 0.0
2018-Feb-10 04:30N 46°06' W 122°56'0 0.0
2018-Feb-10 03:45N 46°06' W 122°56'0 0.0
2018-Feb-10 02:54N 46°06' W 122°56'0 0.0
2018-Feb-10 02:30N 46°06' W 122°56'0 0.0
2018-Feb-10 01:57N 46°06' W 122°56'0 0.0
2018-Feb-10 01:30N 46°06' W 122°56'0 0.0
2018-Feb-10 01:00N 46°06' W 122°56'0 0.0
2018-Feb-10 00:24N 46°06' W 122°56'0 0.0
2018-Feb-09 23:57N 46°06' W 122°56'0 0.0
2018-Feb-09 23:30N 46°06' W 122°56'0 0.0
2018-Feb-09 22:45N 46°06' W 122°56'0 0.0
2018-Feb-08 01:27N 46°06' W 122°56'0 0.0
2018-Feb-08 00:57N 46°06' W 122°56'0 0.4
2018-Feb-08 00:30N 46°06' W 122°56'0 0.2
2018-Feb-07 23:55N 46°06' W 122°56'0 0.0
2018-Feb-07 23:28N 46°06' W 122°56'0 0.0
2018-Feb-07 22:58N 46°06' W 122°56'0 0.0
2018-Feb-07 22:19N 46°06' W 122°56'0 0.0
2018-Feb-07 21:58N 46°06' W 122°56'0 0.0
2018-Feb-07 21:28N 46°06' W 122°56'0 0.0
2018-Feb-07 09:28N 46°06' W 122°56'0 0.0
2018-Feb-07 08:58N 46°06' W 122°56'0 0.0
2018-Feb-07 08:22N 46°06' W 122°56'0 0.0
2018-Feb-07 07:58N 46°06' W 122°56'0 0.0
2018-Feb-07 07:28N 46°06' W 122°56'0 0.0
2018-Feb-07 06:58N 46°06' W 122°56'3 2.6
2018-Feb-07 06:00N 46°07' W 122°59'3 5.5
2018-Feb-07 05:30N 46°09' W 123°03'3 5.0
2018-Feb-07 05:00N 46°10' W 123°06'0 0.9
2018-Feb-07 04:25N 46°10' W 123°06'0 0.0
2018-Feb-07 03:58N 46°10' W 123°06'0 0.0
2018-Feb-07 03:29N 46°10' W 123°06'0 0.0
2018-Feb-07 02:59N 46°10' W 123°06'0 0.0
2018-Feb-07 02:29N 46°10' W 123°06'0 0.0
2018-Feb-07 01:32N 46°10' W 123°06'0 0.1
2018-Feb-07 01:29N 46°10' W 123°06'  
Track history (hours):
 
Tides and Currents Weather Stations Pressure Air Temp Water Temp Dewpoint Dewpoint Depression Visibility Wind Speed Wind Dir Waves Ship Positions

DSV Whale

Last reported at 2018-Feb-17 01:12 UTC. Time now 2018-Feb-25 06:10 UTC.
Position N 46°11' W 125°40'.
Warning: this ship's position is 8 days out of date.

; draft 4.7 m.

Type: Diving. MMSI: 356945000.

Date/timePositionNaut miles runAvg speedWind from/ knotsBaromVisibWave heightAir tempDewpointWater temp
2018-Feb-17 01:12N 46°11' W 125°40'211.7
2018-Feb-17 01:00N 46°12' W 125°36'611.5
2018-Feb-17 00:30N 46°12' W 125°28'611.8
2018-Feb-17 00:00N 46°12' W 125°20'611.7
2018-Feb-16 23:29N 46°12' W 125°11'611.9
2018-Feb-16 23:00N 46°12' W 125°03'612.0
2018-Feb-16 22:30N 46°12' W 124°54'611.7
2018-Feb-16 22:00N 46°12' W 124°45'611.5
2018-Feb-16 21:30N 46°12' W 124°37'911.3
2018-Feb-16 20:43N 46°11' W 124°24'311.1
2018-Feb-16 20:25N 46°11' W 124°20'511.4
2018-Feb-16 20:00N 46°11' W 124°13'5 8.6
2018-Feb-16 19:24N 46°14' W 124°07'3 8.1
2018-Feb-16 19:00N 46°16' W 124°03'4 8.8
2018-Feb-16 18:30N 46°13' W 123°58'4 8.4
2018-Feb-16 17:59N 46°12' W 123°52'4 8.4
2018-Feb-16 17:30N 46°13' W 123°46'5 9.2
2018-Feb-16 17:00N 46°15' W 123°40'810.2
2018-Feb-16 16:11N 46°16' W 123°28'310.5
2018-Feb-16 15:53N 46°14' W 123°26'410.1
2018-Feb-16 15:30N 46°10' W 123°25'510.2
2018-Feb-16 15:00N 46°09' W 123°17'611.2
2018-Feb-16 14:30N 46°11' W 123°10'510.4
2018-Feb-16 14:00N 46°09' W 123°03'510.0
2018-Feb-16 13:30N 46°06' W 122°58'1 1.8
2018-Feb-16 12:59N 46°06' W 122°56'0 0.0
2018-Feb-16 11:44N 46°06' W 122°56'0 0.0
2018-Feb-16 11:29N 46°06' W 122°56'0 0.0
2018-Feb-16 10:59N 46°06' W 122°56'0 0.0
2018-Feb-16 10:29N 46°06' W 122°56'0 0.0
2018-Feb-16 09:56N 46°06' W 122°56'0 0.0
2018-Feb-16 08:59N 46°06' W 122°56'0 0.0
2018-Feb-16 08:26N 46°06' W 122°56'0 0.0
2018-Feb-16 07:59N 46°06' W 122°56'0 0.0
2018-Feb-16 07:23N 46°06' W 122°56'0 0.0
2018-Feb-16 06:59N 46°06' W 122°56'0 0.0
2018-Feb-16 06:29N 46°06' W 122°56'0 0.0
2018-Feb-16 05:56N 46°06' W 122°56'0 0.0
2018-Feb-16 05:29N 46°06' W 122°56'0 0.0
2018-Feb-16 04:53N 46°06' W 122°56'0 0.0
2018-Feb-16 04:29N 46°06' W 122°56'0 0.0
2018-Feb-16 03:59N 46°06' W 122°56'0 0.0
2018-Feb-16 03:26N 46°06' W 122°56'0 0.0
2018-Feb-16 02:59N 46°06' W 122°56'0 0.0
2018-Feb-16 02:29N 46°06' W 122°56'0 0.0
2018-Feb-16 01:59N 46°06' W 122°56'0 0.0
2018-Feb-16 01:29N 46°06' W 122°56'0 0.0
2018-Feb-16 00:59N 46°06' W 122°56'0 0.0
2018-Feb-16 00:20N 46°06' W 122°56'0 0.0
2018-Feb-15 23:59N 46°06' W 122°56'0 0.0
2018-Feb-15 23:29N 46°06' W 122°56'0 0.0
2018-Feb-15 22:59N 46°06' W 122°56'0 0.0
2018-Feb-15 22:29N 46°06' W 122°56'0 0.0
2018-Feb-15 21:59N 46°06' W 122°56'0 0.0
2018-Feb-15 21:29N 46°06' W 122°56'0 0.0
2018-Feb-15 20:56N 46°06' W 122°56'0 0.0
2018-Feb-15 20:29N 46°06' W 122°56'0 0.0
2018-Feb-15 19:59N 46°06' W 122°56'0 0.0
2018-Feb-15 19:29N 46°06' W 122°56'0 0.0
2018-Feb-15 18:53N 46°06' W 122°56'0 0.0
2018-Feb-15 18:08N 46°06' W 122°56'0 0.0
2018-Feb-15 17:59N 46°06' W 122°56'0 0.0
2018-Feb-15 17:29N 46°06' W 122°56'0 0.0
2018-Feb-15 16:59N 46°06' W 122°56'0 0.0
2018-Feb-15 16:29N 46°06' W 122°56'0 0.0
2018-Feb-15 15:29N 46°06' W 122°56'0 0.0
2018-Feb-15 14:56N 46°06' W 122°56'0 0.0
2018-Feb-15 14:29N 46°06' W 122°56'0 0.0
2018-Feb-15 13:59N 46°06' W 122°56'0 0.0
2018-Feb-15 13:29N 46°06' W 122°56'0 0.0
2018-Feb-15 12:59N 46°06' W 122°56'0 0.0
2018-Feb-15 12:29N 46°06' W 122°56'0 0.0
2018-Feb-15 11:59N 46°06' W 122°56'0 0.0
2018-Feb-15 11:11N 46°06' W 122°56'0 0.0
2018-Feb-15 10:53N 46°06' W 122°56'0 0.0
2018-Feb-15 10:11N 46°06' W 122°56'0 0.0
2018-Feb-15 09:53N 46°06' W 122°56'0 0.0
2018-Feb-15 09:29N 46°06' W 122°56'0 0.0
2018-Feb-15 08:59N 46°06' W 122°56'0 0.0
2018-Feb-15 08:26N 46°06' W 122°56'0 0.0
2018-Feb-15 07:59N 46°06' W 122°56'0 0.0
2018-Feb-15 07:29N 46°06' W 122°56'0 0.0
2018-Feb-15 06:59N 46°06' W 122°56'0 0.0
2018-Feb-15 06:23N 46°06' W 122°56'0 0.0
2018-Feb-15 05:56N 46°06' W 122°56'0 0.0
2018-Feb-15 05:29N 46°06' W 122°56'0 0.0
2018-Feb-15 04:59N 46°06' W 122°56'0 0.0
2018-Feb-15 04:29N 46°06' W 122°56'0 0.0
2018-Feb-15 03:59N 46°06' W 122°56'0 0.0
2018-Feb-15 03:29N 46°06' W 122°56'0 0.0
2018-Feb-15 02:59N 46°06' W 122°56'0 0.0
2018-Feb-15 02:26N 46°06' W 122°56'0 0.0
2018-Feb-15 01:44N 46°06' W 122°56'0 0.0
2018-Feb-15 00:53N 46°06' W 122°56'0 0.0
2018-Feb-15 00:29N 46°06' W 122°56'0 0.0
2018-Feb-14 23:59N 46°06' W 122°56'0 0.0
2018-Feb-14 23:29N 46°06' W 122°56'0 0.0
2018-Feb-14 22:59N 46°06' W 122°56'0 0.0
2018-Feb-14 22:29N 46°06' W 122°56'0 0.0
2018-Feb-14 21:59N 46°06' W 122°56'0 0.0
2018-Feb-14 21:29N 46°06' W 122°56'0 0.0
2018-Feb-14 20:59N 46°06' W 122°56'0 0.0
2018-Feb-14 20:31N 46°06' W 122°56'0 0.7
2018-Feb-14 20:00N 46°06' W 122°56'0 0.2
2018-Feb-14 19:30N 46°06' W 122°56'0 0.0
2018-Feb-14 18:54N 46°06' W 122°56'0 0.0
2018-Feb-14 18:30N 46°06' W 122°56'0 0.0
2018-Feb-14 18:00N 46°06' W 122°56'0 0.0
2018-Feb-14 17:30N 46°06' W 122°56'0 0.0
2018-Feb-14 17:00N 46°06' W 122°56'0 0.0
2018-Feb-14 16:30N 46°06' W 122°56'0 0.0
2018-Feb-14 15:45N 46°06' W 122°56'0 0.0
2018-Feb-14 15:24N 46°06' W 122°56'0 0.0
2018-Feb-14 15:00N 46°06' W 122°56'0 0.0
2018-Feb-14 14:30N 46°06' W 122°56'0 0.0
2018-Feb-14 14:00N 46°06' W 122°56'0 0.0
2018-Feb-14 13:30N 46°06' W 122°56'0 0.0
2018-Feb-14 13:00N 46°06' W 122°56'0 0.0
2018-Feb-14 12:27N 46°06' W 122°56'0 0.0
2018-Feb-14 12:00N 46°06' W 122°56'0 0.0
2018-Feb-14 11:21N 46°06' W 122°56'0 0.0
2018-Feb-14 11:00N 46°06' W 122°56'0 0.0
2018-Feb-14 10:30N 46°06' W 122°56'0 0.0
2018-Feb-14 10:00N 46°06' W 122°56'0 0.0
2018-Feb-14 09:27N 46°06' W 122°56'0 0.0
2018-Feb-14 09:00N 46°06' W 122°56'0 0.0
2018-Feb-14 08:09N 46°06' W 122°56'0 0.0
2018-Feb-14 07:57N 46°06' W 122°56'0 0.0
2018-Feb-14 07:30N 46°06' W 122°56'0 0.0
2018-Feb-14 06:51N 46°06' W 122°56'0 0.0
2018-Feb-14 06:30N 46°06' W 122°56'0 0.0
2018-Feb-14 05:57N 46°06' W 122°56'0 0.0
2018-Feb-14 05:30N 46°06' W 122°56'0 0.0
2018-Feb-14 04:54N 46°06' W 122°56'0 0.0
2018-Feb-14 04:30N 46°06' W 122°56'0 0.0
2018-Feb-14 04:00N 46°06' W 122°56'0 0.0
2018-Feb-14 03:30N 46°06' W 122°56'0 0.0
2018-Feb-14 03:00N 46°06' W 122°56'0 0.0
2018-Feb-14 02:30N 46°06' W 122°56'0 0.0
2018-Feb-14 01:51N 46°06' W 122°56'0 0.0
2018-Feb-14 01:27N 46°06' W 122°56'0 0.0
2018-Feb-14 01:00N 46°06' W 122°56'0 0.0
2018-Feb-14 00:30N 46°06' W 122°56'0 0.0
2018-Feb-14 00:00N 46°06' W 122°56'0 0.0
2018-Feb-13 23:18N 46°06' W 122°56'0 0.0
2018-Feb-13 23:00N 46°06' W 122°56'0 0.0
2018-Feb-13 22:30N 46°06' W 122°56'0 0.0
2018-Feb-13 20:27N 46°06' W 122°56'0 0.0
2018-Feb-13 19:57N 46°06' W 122°56'0 0.0
2018-Feb-13 19:30N 46°06' W 122°56'0 0.0
2018-Feb-13 18:57N 46°06' W 122°56'0 0.0
2018-Feb-13 17:45N 46°06' W 122°56'0 0.0
2018-Feb-13 17:24N 46°06' W 122°56'0 0.0
2018-Feb-13 17:00N 46°06' W 122°56'0 0.0
2018-Feb-13 16:30N 46°06' W 122°56'0 0.0
2018-Feb-13 15:39N 46°06' W 122°56'0 0.0
2018-Feb-13 15:21N 46°06' W 122°56'0 0.0
2018-Feb-13 15:00N 46°06' W 122°56'0 0.0
2018-Feb-13 14:30N 46°06' W 122°56'0 0.0
2018-Feb-13 14:00N 46°06' W 122°56'0 0.0
2018-Feb-13 13:30N 46°06' W 122°56'0 0.0
2018-Feb-13 12:45N 46°06' W 122°56'0 0.0
2018-Feb-13 12:27N 46°06' W 122°56'0 0.0
2018-Feb-13 12:00N 46°06' W 122°56'0 0.0
2018-Feb-13 11:30N 46°06' W 122°56'0 0.0
2018-Feb-13 10:57N 46°06' W 122°56'0 0.0
2018-Feb-13 10:24N 46°06' W 122°56'0 0.0
2018-Feb-13 10:00N 46°06' W 122°56'0 0.0
2018-Feb-13 09:24N 46°06' W 122°56'0 0.0
2018-Feb-13 09:00N 46°06' W 122°56'0 0.0
2018-Feb-13 08:30N 46°06' W 122°56'0 0.0
2018-Feb-13 07:57N 46°06' W 122°56'0 0.0
2018-Feb-13 07:21N 46°06' W 122°56'0 0.0
2018-Feb-13 07:00N 46°06' W 122°56'0 0.0
2018-Feb-13 06:30N 46°06' W 122°56'0 0.0
2018-Feb-13 05:48N 46°06' W 122°56'0 0.0
2018-Feb-13 05:24N 46°06' W 122°56'0 0.0
2018-Feb-13 05:00N 46°06' W 122°56'0 0.0
2018-Feb-13 04:30N 46°06' W 122°56'0 0.0
2018-Feb-13 03:57N 46°06' W 122°56'0 0.0
2018-Feb-13 03:24N 46°06' W 122°56'0 0.0
2018-Feb-13 03:00N 46°06' W 122°56'0 0.0
2018-Feb-13 02:24N 46°06' W 122°56'0 0.0
2018-Feb-13 02:00N 46°06' W 122°56'0 0.0
2018-Feb-13 01:30N 46°06' W 122°56'0 0.0
2018-Feb-13 01:00N 46°06' W 122°56'0 0.0
2018-Feb-13 00:12N 46°06' W 122°56'0 0.0
2018-Feb-12 23:57N 46°06' W 122°56'0 0.0
2018-Feb-12 23:24N 46°06' W 122°56'0 0.0
2018-Feb-12 22:57N 46°06' W 122°56'0 0.0
2018-Feb-12 22:30N 46°06' W 122°56'0 0.0
2018-Feb-12 21:57N 46°06' W 122°56'0 0.0
2018-Feb-12 21:30N 46°06' W 122°56'0 0.0
2018-Feb-12 20:54N 46°06' W 122°56'0 0.0
2018-Feb-12 20:18N 46°06' W 122°56'0 0.0
2018-Feb-12 20:00N 46°06' W 122°56'0 0.0
2018-Feb-12 19:30N 46°06' W 122°56'0 0.0
2018-Feb-12 19:00N 46°06' W 122°56'0 0.0
2018-Feb-12 18:27N 46°06' W 122°56'0 0.0
2018-Feb-12 17:57N 46°06' W 122°56'0 0.0
2018-Feb-12 17:30N 46°06' W 122°56'0 0.0
2018-Feb-12 16:48N 46°06' W 122°56'0 0.0
2018-Feb-12 16:21N 46°06' W 122°56'0 0.0
2018-Feb-12 16:00N 46°06' W 122°56'0 0.0
2018-Feb-12 15:15N 46°06' W 122°56'0 0.0
2018-Feb-12 15:00N 46°06' W 122°56'0 0.0
2018-Feb-12 14:30N 46°06' W 122°56'0 0.0
2018-Feb-12 14:00N 46°06' W 122°56'0 0.0
2018-Feb-12 13:24N 46°06' W 122°56'0 0.0
2018-Feb-12 12:54N 46°06' W 122°56'0 0.0
2018-Feb-12 12:30N 46°06' W 122°56'0 0.0
2018-Feb-12 12:00N 46°06' W 122°56'0 0.0
2018-Feb-12 11:30N 46°06' W 122°56'0 0.0
2018-Feb-12 11:00N 46°06' W 122°56'0 0.0
2018-Feb-12 10:30N 46°06' W 122°56'0 0.0
2018-Feb-12 10:00N 46°06' W 122°56'0 0.0
2018-Feb-12 09:27N 46°06' W 122°56'0 0.0
2018-Feb-12 08:54N 46°06' W 122°56'0 0.0
2018-Feb-12 08:30N 46°06' W 122°56'0 0.0
2018-Feb-12 08:00N 46°06' W 122°56'0 0.0
2018-Feb-12 07:30N 46°06' W 122°56'0 0.0
2018-Feb-12 07:00N 46°06' W 122°56'0 0.0
2018-Feb-12 06:30N 46°06' W 122°56'0 0.0
2018-Feb-12 05:30N 46°06' W 122°56'0 0.0
2018-Feb-12 05:00N 46°06' W 122°56'0 0.0
2018-Feb-12 04:30N 46°06' W 122°56'0 0.0
2018-Feb-12 03:57N 46°06' W 122°56'0 0.0
2018-Feb-12 03:30N 46°06' W 122°56'0 0.0
2018-Feb-12 02:54N 46°06' W 122°56'0 0.0
2018-Feb-12 02:30N 46°06' W 122°56'0 0.0
2018-Feb-12 02:00N 46°06' W 122°56'0 0.0
2018-Feb-12 01:30N 46°06' W 122°56'0 0.0
2018-Feb-12 00:54N 46°06' W 122°56'0 0.0
2018-Feb-12 00:30N 46°06' W 122°56'0 0.0
2018-Feb-12 00:00N 46°06' W 122°56'0 0.0
2018-Feb-11 23:27N 46°06' W 122°56'0 0.0
2018-Feb-11 22:48N 46°06' W 122°56'0 0.0
2018-Feb-11 22:27N 46°06' W 122°56'0 0.0
2018-Feb-11 22:00N 46°06' W 122°56'0 0.0
2018-Feb-11 21:24N 46°06' W 122°56'0 0.0
2018-Feb-11 21:00N 46°06' W 122°56'0 0.0
2018-Feb-11 19:54N 46°06' W 122°56'0 0.0
2018-Feb-11 19:15N 46°06' W 122°56'0 0.0
2018-Feb-11 19:00N 46°06' W 122°56'0 0.0
2018-Feb-11 18:30N 46°06' W 122°56'0 0.0
2018-Feb-11 17:57N 46°06' W 122°56'0 0.0
2018-Feb-11 17:24N 46°06' W 122°56'0 0.0
2018-Feb-11 16:57N 46°06' W 122°56'0 0.0
2018-Feb-11 16:30N 46°06' W 122°56'0 0.0
2018-Feb-11 15:54N 46°06' W 122°56'0 0.0
2018-Feb-11 15:27N 46°06' W 122°56'0 0.0
2018-Feb-11 14:51N 46°06' W 122°56'0 0.0
2018-Feb-11 14:30N 46°06' W 122°56'0 0.0
2018-Feb-11 13:57N 46°06' W 122°56'0 0.0
2018-Feb-11 13:27N 46°06' W 122°56'0 0.0
2018-Feb-11 13:00N 46°06' W 122°56'0 0.0
2018-Feb-11 12:30N 46°06' W 122°56'0 0.0
2018-Feb-11 11:48N 46°06' W 122°56'0 0.0
2018-Feb-11 11:27N 46°06' W 122°56'0 0.0
2018-Feb-11 11:00N 46°06' W 122°56'0 0.0
2018-Feb-11 10:27N 46°06' W 122°56'0 0.0
2018-Feb-11 10:00N 46°06' W 122°56'0 0.0
2018-Feb-11 09:27N 46°06' W 122°56'0 0.0
2018-Feb-11 09:00N 46°06' W 122°56'0 0.0
2018-Feb-11 08:24N 46°06' W 122°56'0 0.0
2018-Feb-11 08:00N 46°06' W 122°56'0 0.0
2018-Feb-11 06:57N 46°06' W 122°56'0 0.0
2018-Feb-11 06:24N 46°06' W 122°56'0 0.0
2018-Feb-11 05:48N 46°06' W 122°56'0 0.0
2018-Feb-11 05:24N 46°06' W 122°56'0 0.0
2018-Feb-11 05:00N 46°06' W 122°56'0 0.0
2018-Feb-11 04:15N 46°06' W 122°56'0 0.0
2018-Feb-11 03:57N 46°06' W 122°56'0 0.0
2018-Feb-11 03:30N 46°06' W 122°56'0 0.0
2018-Feb-11 02:57N 46°06' W 122°56'0 0.0
2018-Feb-11 02:15N 46°06' W 122°56'0 0.0
2018-Feb-11 01:57N 46°06' W 122°56'0 0.0
2018-Feb-11 01:27N 46°06' W 122°56'0 0.0
2018-Feb-11 00:54N 46°06' W 122°56'0 0.0
2018-Feb-11 00:24N 46°06' W 122°56'0 0.0
2018-Feb-10 23:57N 46°06' W 122°56'0 0.0
2018-Feb-10 23:24N 46°06' W 122°56'0 0.0
2018-Feb-10 22:57N 46°06' W 122°56'0 0.0
2018-Feb-10 22:27N 46°06' W 122°56'0 0.0
2018-Feb-10 21:42N 46°06' W 122°56'0 0.0
2018-Feb-10 21:24N 46°06' W 122°56'0 0.0
2018-Feb-10 20:54N 46°06' W 122°56'0 0.0
2018-Feb-10 20:30N 46°06' W 122°56'0 0.0
2018-Feb-10 19:57N 46°06' W 122°56'0 0.0
2018-Feb-10 19:30N 46°06' W 122°56'0 0.0
2018-Feb-10 19:00N 46°06' W 122°56'0 0.0
2018-Feb-10 18:30N 46°06' W 122°56'0 0.0
2018-Feb-10 18:00N 46°06' W 122°56'0 0.0
2018-Feb-10 17:30N 46°06' W 122°56'0 0.0
2018-Feb-10 17:00N 46°06' W 122°56'0 0.0
2018-Feb-10 16:30N 46°06' W 122°56'0 0.0
2018-Feb-10 15:57N 46°06' W 122°56'0 0.0
2018-Feb-10 15:30N 46°06' W 122°56'0 0.0
2018-Feb-10 15:00N 46°06' W 122°56'0 0.0
2018-Feb-10 14:30N 46°06' W 122°56'0 0.0
2018-Feb-10 14:00N 46°06' W 122°56'0 0.0
2018-Feb-10 13:30N 46°06' W 122°56'0 0.0
2018-Feb-10 12:45N 46°06' W 122°56'0 0.0
2018-Feb-10 12:30N 46°06' W 122°56'0 0.0
2018-Feb-10 12:00N 46°06' W 122°56'0 0.0
2018-Feb-10 11:28N 46°06' W 122°56'0 0.0
2018-Feb-10 11:00N 46°06' W 122°56'0 0.0
2018-Feb-10 10:30N 46°06' W 122°56'0 0.0
2018-Feb-10 10:00N 46°06' W 122°56'0 0.0
2018-Feb-10 09:30N 46°06' W 122°56'0 0.0
2018-Feb-10 09:00N 46°06' W 122°56'0 0.0
2018-Feb-10 08:30N 46°06' W 122°56'0 0.0
2018-Feb-10 07:57N 46°06' W 122°56'0 0.0
2018-Feb-10 07:27N 46°06' W 122°56'0 0.0
2018-Feb-10 06:45N 46°06' W 122°56'0 0.0
2018-Feb-10 06:09N 46°06' W 122°56'0 0.0
2018-Feb-10 06:00N 46°06' W 122°56'0 0.0
2018-Feb-10 05:30N 46°06' W 122°56'0 0.0
2018-Feb-10 05:00N 46°06' W 122°56'0 0.0
2018-Feb-10 04:30N 46°06' W 122°56'0 0.0
2018-Feb-10 03:45N 46°06' W 122°56'0 0.0
2018-Feb-10 02:54N 46°06' W 122°56'0 0.0
2018-Feb-10 02:30N 46°06' W 122°56'0 0.0
2018-Feb-10 01:57N 46°06' W 122°56'0 0.0
2018-Feb-10 01:30N 46°06' W 122°56'0 0.0
2018-Feb-10 01:00N 46°06' W 122°56'0 0.0
2018-Feb-10 00:24N 46°06' W 122°56'0 0.0
2018-Feb-09 23:57N 46°06' W 122°56'0 0.0
2018-Feb-09 23:30N 46°06' W 122°56'0 0.0
2018-Feb-09 22:45N 46°06' W 122°56'0 0.0
2018-Feb-08 01:27N 46°06' W 122°56'0 0.0
2018-Feb-08 00:57N 46°06' W 122°56'0 0.4
2018-Feb-08 00:30N 46°06' W 122°56'0 0.2
2018-Feb-07 23:55N 46°06' W 122°56'0 0.0
2018-Feb-07 23:28N 46°06' W 122°56'0 0.0
2018-Feb-07 22:58N 46°06' W 122°56'0 0.0
2018-Feb-07 22:19N 46°06' W 122°56'0 0.0
2018-Feb-07 21:58N 46°06' W 122°56'0 0.0
2018-Feb-07 21:28N 46°06' W 122°56'0 0.0
2018-Feb-07 09:28N 46°06' W 122°56'0 0.0
2018-Feb-07 08:58N 46°06' W 122°56'0 0.0
2018-Feb-07 08:22N 46°06' W 122°56'0 0.0
2018-Feb-07 07:58N 46°06' W 122°56'0 0.0
2018-Feb-07 07:28N 46°06' W 122°56'0 0.0
2018-Feb-07 06:58N 46°06' W 122°56'3 2.6
2018-Feb-07 06:00N 46°07' W 122°59'3 5.5
2018-Feb-07 05:30N 46°09' W 123°03'3 5.0
2018-Feb-07 05:00N 46°10' W 123°06'0 0.9
2018-Feb-07 04:25N 46°10' W 123°06'0 0.0
2018-Feb-07 03:58N 46°10' W 123°06'0 0.0
2018-Feb-07 03:29N 46°10' W 123°06'0 0.0
2018-Feb-07 02:59N 46°10' W 123°06'0 0.0
2018-Feb-07 02:29N 46°10' W 123°06'0 0.0
2018-Feb-07 01:32N 46°10' W 123°06'0 0.1
2018-Feb-07 01:29N 46°10' W 123°06'  

Dump ship's entire track history